Time;durP1;ratioP1;P1;durP2;ratioP2;P2;SDS_P1;SDS_P2;PMS_P1;PMS_P2;Temp;Humidity;BMP_temperature;BMP_pressure;BME280_temperature;BME280_humidity;BME280_pressure;Samples;Min_cycle;Max_cycle;Signal;HPM_P1;HPM_P2
2023/08/23 00:02:26;;;;;;;12.00;5.03;;;15.70;99.90;;;;;;6220858;23;20013;-90
2023/08/23 00:05:12;;;;;;;11.25;5.30;;;15.70;99.90;;;;;;6219966;23;20016;-89
2023/08/23 00:07:43;;;;;;;11.50;5.22;;;15.70;99.90;;;;;;6221760;23;20028;-89
2023/08/23 00:10:15;;;;;;;14.63;5.07;;;15.60;99.90;;;;;;6218531;23;20020;-89
2023/08/23 00:12:56;;;;;;;12.10;5.93;;;15.60;99.90;;;;;;6245571;23;20091;-89
2023/08/23 00:18:16;;;;;;;11.13;5.60;;;15.50;99.90;;;;;;6241452;22;20028;-89
2023/08/23 00:20:41;;;;;;;12.35;5.95;;;15.50;99.90;;;;;;6245669;22;20354;-90
2023/08/23 00:23:22;;;;;;;11.10;5.40;;;15.50;99.90;;;;;;6245231;23;20102;-90
2023/08/23 00:25:56;;;;;;;11.02;5.65;;;15.80;99.90;;;;;;6213419;23;20017;-89
2023/08/23 00:28:32;;;;;;;11.73;5.50;;;15.40;99.90;;;;;;6240944;23;20012;-89
2023/08/23 00:31:07;;;;;;;13.70;5.53;;;15.40;99.90;;;;;;6218412;23;20047;-89
2023/08/23 00:33:38;;;;;;;12.00;5.80;;;15.30;99.90;;;;;;6210569;23;20099;-90
2023/08/23 00:36:13;;;;;;;11.18;5.63;;;15.30;99.90;;;;;;6220027;23;20027;-89
2023/08/23 00:42:22;;;;;;;13.10;5.60;;;15.20;99.90;;;;;;6160618;23;20027;-89
2023/08/23 00:45:03;;;;;;;11.82;5.50;;;15.20;99.90;;;;;;6189958;23;20052;-89
2023/08/23 00:47:38;;;;;;;11.00;5.47;;;15.20;99.90;;;;;;6154382;23;20422;-89
2023/08/23 00:50:08;;;;;;;12.48;5.50;;;14.90;99.90;;;;;;6129713;23;20068;-90
2023/08/23 00:52:41;;;;;;;12.25;5.90;;;15.20;99.90;;;;;;6139990;22;20032;-89
2023/08/23 00:55:07;;;;;;;13.15;5.45;;;15.10;99.90;;;;;;6155573;23;20350;-89
2023/08/23 00:57:36;;;;;;;11.48;5.75;;;15.10;99.90;;;;;;6162388;23;20022;-90
2023/08/23 01:00:11;;;;;;;11.48;5.47;;;15.10;99.90;;;;;;6159227;23;20028;-89
2023/08/23 01:02:43;;;;;;;10.77;5.53;;;15.00;99.90;;;;;;6155472;23;20521;-89
2023/08/23 01:05:18;;;;;;;12.40;5.57;;;15.20;99.90;;;;;;6155918;23;20036;-89
2023/08/23 01:08:12;;;;;;;13.60;6.07;;;15.00;99.90;;;;;;6154290;23;20021;-90
2023/08/23 01:14:11;;;;;;;11.20;5.60;;;14.90;99.90;;;;;;6153756;23;20115;-89
2023/08/23 01:16:46;;;;;;;11.65;6.00;;;14.90;99.90;;;;;;6154238;23;20362;-90
2023/08/23 01:23:13;;;;;;;12.45;6.53;;;14.90;99.90;;;;;;6156531;23;20031;-89
2023/08/23 01:26:10;;;;;;;13.23;6.47;;;14.80;99.90;;;;;;6154180;23;20353;-89
2023/08/23 01:28:47;;;;;;;11.60;6.03;;;14.80;99.90;;;;;;6155272;23;20018;-89
2023/08/23 01:31:25;;;;;;;;;;;;;;;;;;;;;
2023/08/23 01:34:42;;;;;;;11.82;5.90;;;15.30;99.90;;;;;;6140483;23;20021;-89
2023/08/23 01:37:13;;;;;;;13.77;5.80;;;14.80;99.90;;;;;;6112709;23;20024;-89
2023/08/23 01:42:25;;;;;;;12.27;6.25;;;14.70;99.90;;;;;;6214298;22;20025;-89
2023/08/23 01:47:26;;;;;;;12.15;5.90;;;14.60;99.90;;;;;;6216162;22;20020;-89
2023/08/23 01:50:02;;;;;;;;;;;;;;;;;;;;;
2023/08/23 01:52:43;;;;;;;13.25;6.32;;;14.60;99.90;;;;;;6188989;23;20020;-89
2023/08/23 01:55:18;;;;;;;10.77;6.00;;;14.60;99.90;;;;;;6189135;23;20048;-89
2023/08/23 01:57:45;;;;;;;11.40;5.65;;;14.50;99.90;;;;;;6189371;23;20349;-90
2023/08/23 02:00:23;;;;;;;11.20;6.22;;;14.50;99.90;;;;;;6192588;23;20552;-89
2023/08/23 02:02:52;;;;;;;12.50;7.15;;;14.60;99.90;;;;;;6187279;23;20020;-89
2023/08/23 02:05:21;;;;;;;12.85;7.35;;;14.50;99.90;;;;;;6188445;23;20017;-89
2023/08/23 02:07:58;;;;;;;12.10;6.72;;;14.50;99.90;;;;;;6188224;23;20345;-89
2023/08/23 02:10:32;;;;;;;11.77;6.50;;;14.50;99.90;;;;;;6188164;22;20370;-90
2023/08/23 02:13:48;;;;;;;12.15;6.90;;;14.50;99.90;;;;;;6190105;22;20027;-89
2023/08/23 02:17:21;;;;;;;;;;;;;;;;;;;;;
2023/08/23 02:19:59;;;;;;;13.57;7.43;;;14.40;99.90;;;;;;6108578;23;20021;-89
2023/08/23 02:22:39;;;;;;;14.38;7.47;;;14.40;99.90;;;;;;6162064;22;20013;-90
2023/08/23 02:25:38;;;;;;;15.23;7.70;;;14.40;99.90;;;;;;6214668;23;20055;-89
2023/08/23 02:28:55;;;;;;;13.75;8.00;;;14.20;99.90;;;;;;6182936;22;20024;-89
2023/08/23 02:31:23;;;;;;;14.88;7.63;;;14.40;99.90;;;;;;6184008;23;20021;-90
2023/08/23 02:33:55;;;;;;;13.77;8.00;;;14.40;99.90;;;;;;6158934;23;20017;-88
2023/08/23 02:36:20;;;;;;;13.25;8.23;;;14.30;99.90;;;;;;6185002;23;20342;-89
2023/08/23 02:42:04;;;;;;;12.83;7.50;;;14.20;99.90;;;;;;6193499;22;20028;-89
2023/08/23 02:44:33;;;;;;;15.70;8.35;;;14.20;99.90;;;;;;6156286;23;20021;-89
2023/08/23 02:46:58;;;;;;;14.80;9.52;;;15.00;99.90;;;;;;6189129;23;20422;-90
2023/08/23 02:49:57;;;;;;;15.73;9.55;;;14.20;99.90;;;;;;6192309;23;20024;-90
2023/08/23 02:52:40;;;;;;;15.77;9.38;;;14.20;99.90;;;;;;6064148;23;20030;-89
2023/08/23 02:55:28;;;;;;;13.83;8.10;;;14.60;99.90;;;;;;6039973;23;20027;-89
2023/08/23 02:57:57;;;;;;;15.52;9.38;;;14.20;99.90;;;;;;6064700;23;20258;-89
2023/08/23 03:00:23;;;;;;;14.38;8.98;;;14.10;99.90;;;;;;6035168;23;20412;-89
2023/08/23 03:02:54;;;;;;;15.77;9.00;;;14.10;99.90;;;;;;6040928;23;20034;-89
2023/08/23 03:05:26;;;;;;;14.88;9.13;;;14.20;99.90;;;;;;6040209;23;20030;-90
2023/08/23 03:07:54;;;;;;;15.30;9.63;;;14.10;99.90;;;;;;6064953;23;20486;-90
2023/08/23 03:10:25;;;;;;;14.48;9.07;;;14.10;99.90;;;;;;6040272;23;20699;-89
2023/08/23 03:12:51;;;;;;;17.33;9.82;;;14.10;99.90;;;;;;6039542;23;20098;-90
2023/08/23 03:18:50;;;;;;;16.30;9.52;;;14.10;99.90;;;;;;6060739;23;20367;-90
2023/08/23 03:21:44;;;;;;;15.80;9.63;;;14.00;99.90;;;;;;6180661;23;20013;-90
2023/08/23 03:24:26;;;;;;;15.95;9.98;;;14.10;99.90;;;;;;6182418;23;20334;-89
2023/08/23 03:27:17;;;;;;;16.42;10.45;;;14.00;99.90;;;;;;6181362;22;20021;-89
2023/08/23 03:29:49;;;;;;;15.43;9.27;;;14.40;99.90;;;;;;6158298;23;20337;-89
2023/08/23 03:32:41;;;;;;;14.15;9.35;;;14.00;99.90;;;;;;6177174;22;20021;-89
2023/08/23 03:35:21;;;;;;;17.63;9.70;;;13.70;99.90;;;;;;6039821;23;20470;-89
2023/08/23 03:37:46;;;;;;;23.35;12.25;;;14.10;99.90;;;;;;6064491;23;20090;-90
2023/08/23 03:40:53;;;;;;;19.42;11.00;;;14.10;99.90;;;;;;6110213;22;20047;-90
2023/08/23 03:43:36;;;;;;;18.77;11.20;;;14.10;99.90;;;;;;6207967;23;20000;-89
2023/08/23 03:46:25;;;;;;;21.75;13.02;;;14.10;99.90;;;;;;6196528;23;20020;-90
2023/08/23 03:48:57;;;;;;;33.22;16.15;;;14.00;99.90;;;;;;6188463;22;20748;-89
2023/08/23 03:51:52;;;;;;;31.92;16.92;;;14.20;99.90;;;;;;6185267;22;20028;-89
2023/08/23 03:54:33;;;;;;;27.70;14.38;;;14.20;99.90;;;;;;6158484;23;20342;-90
2023/08/23 03:56:59;;;;;;;27.10;13.85;;;14.30;99.90;;;;;;6203237;22;20089;-89
2023/08/23 03:59:25;;;;;;;42.65;17.02;;;14.20;99.90;;;;;;6187275;23;20508;-89
2023/08/23 04:02:00;;;;;;;46.10;17.23;;;14.90;99.90;;;;;;6190439;22;21515;-89
2023/08/23 04:04:43;;;;;;;55.75;18.70;;;15.30;99.90;;;;;;6187512;23;20096;-90
2023/08/23 04:07:36;;;;;;;;;;;;;;;;;;;;;
2023/08/23 04:13:09;;;;;;;52.10;19.15;;;14.30;99.90;;;;;;6111597;23;20024;-90
2023/08/23 04:15:44;;;;;;;60.28;19.58;;;13.70;99.90;;;;;;6159729;22;20036;-90
2023/08/23 04:21:36;;;;;;;41.47;18.52;;;14.40;99.90;;;;;;6118318;23;20052;-90
2023/08/23 04:24:27;;;;;;;45.65;18.80;;;14.40;99.90;;;;;;6174140;23;20060;-89
2023/08/23 04:26:53;;;;;;;53.58;21.83;;;14.10;99.90;;;;;;6159397;23;20025;-90
2023/08/23 04:29:40;;;;;;;34.50;18.38;;;14.30;99.90;;;;;;6187306;23;20319;-89
2023/08/23 04:34:59;;;;;;;29.90;17.20;;;14.40;99.90;;;;;;6187309;23;20025;-90
2023/08/23 04:37:27;;;;;;;33.33;18.17;;;14.40;99.90;;;;;;6186143;23;20016;-90
2023/08/23 04:39:55;;;;;;;26.55;16.50;;;14.40;99.90;;;;;;6191714;23;20028;-91
2023/08/23 04:42:34;;;;;;;26.13;15.80;;;14.30;99.90;;;;;;6185478;23;20044;-90
2023/08/23 04:45:03;;;;;;;25.85;15.43;;;14.40;99.90;;;;;;6184106;23;20017;-90
2023/08/23 04:50:51;;;;;;;28.90;16.00;;;14.40;99.90;;;;;;6183599;23;20401;-90
2023/08/23 04:53:17;;;;;;;27.83;16.38;;;14.60;99.90;;;;;;6160746;23;20267;-89
2023/08/23 04:59:25;;;;;;;26.38;15.73;;;14.60;99.90;;;;;;6224057;23;20096;-90
2023/08/23 05:01:54;;;;;;;27.80;15.98;;;14.70;99.90;;;;;;6215893;23;20020;-91
2023/08/23 05:04:22;;;;;;;27.70;15.70;;;14.70;99.90;;;;;;6192067;23;20423;-91
2023/08/23 05:07:04;;;;;;;29.70;16.52;;;14.70;99.90;;;;;;6154940;23;20022;-91
2023/08/23 05:09:30;;;;;;;28.40;16.38;;;14.80;99.90;;;;;;6155966;23;20033;-90
2023/08/23 05:11:56;;;;;;;30.20;16.25;;;15.20;99.90;;;;;;6185239;23;20079;-91
2023/08/23 05:14:50;;;;;;;24.27;15.50;;;14.80;99.90;;;;;;6195720;22;20017;31
2023/08/23 05:17:16;;;;;;;25.17;15.23;;;14.80;99.90;;;;;;6179114;23;20322;-88
2023/08/23 05:20:01;;;;;;;;;;;;;;;;;;;;;
2023/08/23 05:22:58;;;;;;;22.42;13.98;;;15.00;99.90;;;;;;6184315;23;20017;-89
2023/08/23 05:25:26;;;;;;;26.35;15.35;;;15.00;99.90;;;;;;6184411;23;20017;-89
2023/08/23 05:28:46;;;;;;;24.90;15.35;;;15.00;99.90;;;;;;6221019;23;20106;-89
2023/08/23 05:31:43;;;;;;;24.80;15.63;;;15.10;99.90;;;;;;6162435;23;20021;-89
2023/08/23 05:34:27;;;;;;;25.75;15.52;;;15.20;99.90;;;;;;6177138;23;20103;-89
2023/08/23 05:39:38;;;;;;;24.77;14.38;;;15.10;99.90;;;;;;6216213;22;19923;-89
2023/08/23 05:42:13;;;;;;;22.52;14.82;;;15.30;99.90;;;;;;6215445;23;20459;-88
2023/08/23 05:44:39;;;;;;;25.08;15.35;;;15.40;99.90;;;;;;6217627;23;20020;-89
2023/08/23 05:47:10;;;;;;;28.77;16.65;;;15.50;99.90;;;;;;6213305;23;20017;-89
2023/08/23 05:49:36;;;;;;;28.30;16.67;;;15.80;99.90;;;;;;6213899;23;20020;-89
2023/08/23 05:52:08;;;;;;;27.75;16.65;;;15.60;99.90;;;;;;6221569;22;20028;-89
2023/08/23 05:54:49;;;;;;;;;;;;;;;;;;;;;
2023/08/23 05:57:27;;;;;;;30.30;17.83;;;15.80;99.90;;;;;;6164404;23;20013;-89
2023/08/23 06:00:18;;;;;;;29.63;17.30;;;15.80;99.90;;;;;;6184796;23;20311;-90
2023/08/23 06:02:44;;;;;;;27.50;16.67;;;15.80;99.90;;;;;;6182551;23;20008;-90
2023/08/23 06:08:41;;;;;;;28.90;16.67;;;15.90;99.90;;;;;;6182443;23;20017;-85
2023/08/23 06:11:10;;;;;;;32.55;16.42;;;15.90;99.90;;;;;;6185915;23;20037;-87
2023/08/23 06:13:44;;;;;;;26.38;15.02;;;15.90;99.90;;;;;;6185329;23;20044;-86
2023/08/23 06:16:19;;;;;;;30.10;16.20;;;15.90;99.90;;;;;;6184311;23;20521;-86
2023/08/23 06:18:45;;;;;;;31.50;17.20;;;16.00;99.90;;;;;;6184000;23;20092;-85
2023/08/23 06:21:10;;;;;;;36.42;16.70;;;15.90;99.90;;;;;;6188287;22;20047;-85
2023/08/23 06:23:57;;;;;;;28.65;16.40;;;16.00;99.90;;;;;;6214699;23;20024;-86
2023/08/23 06:26:46;;;;;;;31.70;17.77;;;16.50;99.90;;;;;;6214058;23;20017;-86
2023/08/23 06:29:18;;;;;;;30.90;17.50;;;16.20;99.90;;;;;;6213620;23;20048;-84
2023/08/23 06:31:44;;;;;;;34.63;18.05;;;16.40;99.90;;;;;;6215494;23;20019;-85
2023/08/23 06:34:19;;;;;;;33.13;17.20;;;16.20;99.90;;;;;;6213749;23;20020;-86
2023/08/23 06:36:47;;;;;;;30.88;17.10;;;16.30;99.90;;;;;;6212697;23;20095;-86
2023/08/23 06:39:17;;;;;;;31.67;17.08;;;16.40;99.90;;;;;;6213735;23;20020;-86
2023/08/23 06:41:43;;;;;;;30.40;16.45;;;16.40;99.90;;;;;;6214857;23;20012;-84
2023/08/23 06:44:15;;;;;;;30.13;16.23;;;16.50;99.90;;;;;;6214632;23;20680;-83
2023/08/23 06:46:47;;;;;;;26.27;16.20;;;16.60;99.90;;;;;;6219909;23;20017;-83
2023/08/23 06:49:31;;;;;;;25.73;15.65;;;16.70;99.90;;;;;;6220681;23;20013;-85
2023/08/23 06:51:57;;;;;;;28.35;15.48;;;16.80;99.90;;;;;;6212807;23;20047;-84
2023/08/23 06:54:32;;;;;;;30.20;16.20;;;16.90;99.90;;;;;;6213445;23;20095;-84
2023/08/23 06:57:04;;;;;;;25.27;15.23;;;17.00;99.90;;;;;;6214612;23;20020;-82
2023/08/23 06:59:30;;;;;;;24.33;14.98;;;17.10;99.90;;;;;;6212485;23;20045;-85
2023/08/23 07:01:59;;;;;;;23.33;14.00;;;17.20;99.90;;;;;;6213441;23;20028;-85
2023/08/23 07:04:30;;;;;;;23.17;14.35;;;17.30;99.90;;;;;;6212476;23;20028;-86
2023/08/23 07:06:59;;;;;;;27.75;14.55;;;17.40;99.90;;;;;;6214114;23;20314;-86
2023/08/23 07:09:37;;;;;;;24.77;14.38;;;17.30;99.90;;;;;;6212681;23;20016;-89
2023/08/23 07:14:41;;;;;;;23.05;12.98;;;17.80;99.90;;;;;;6213146;22;20025;-87
2023/08/23 07:19:58;;;;;;;;;;;;;;;;;;;;;
2023/08/23 07:22:58;;;;;;;23.42;13.27;;;18.00;99.90;;;;;;6152095;23;20029;-86
2023/08/23 07:26:15;;;;;;;22.67;13.38;;;18.40;99.90;;;;;;6214210;22;20075;-88
2023/08/23 07:29:24;;;;;;;23.90;13.43;;;18.50;99.90;;;;;;6169187;23;20445;-87
2023/08/23 07:31:55;;;;;;;22.88;13.65;;;18.70;99.90;;;;;;6182465;23;20025;-86
2023/08/23 07:34:46;;;;;;;21.17;12.57;;;18.50;99.90;;;;;;6184968;23;20019;-87
2023/08/23 07:37:14;;;;;;;20.13;12.00;;;19.10;99.90;;;;;;6159753;23;20032;-86
2023/08/23 07:45:00;;;;;;;18.48;11.52;;;19.40;99.90;;;;;;6205866;22;20025;-85
2023/08/23 07:47:43;;;;;;;16.85;10.32;;;19.50;99.90;;;;;;6214396;23;20070;-89
2023/08/23 07:50:27;;;;;;;19.65;10.60;;;19.50;99.90;;;;;;6214987;23;20047;-86
2023/08/23 07:52:55;;;;;;;18.02;12.05;;;19.60;99.90;;;;;;6213038;22;20027;-87
2023/08/23 07:58:00;;;;;;;16.65;9.63;;;19.80;99.90;;;;;;6214900;22;20024;-87
2023/08/23 08:00:26;;;;;;;16.27;9.50;;;19.80;99.90;;;;;;6213815;23;20345;-87
2023/08/23 08:02:54;;;;;;;15.50;8.30;;;19.80;99.90;;;;;;6213834;23;20017;-87
2023/08/23 08:05:20;;;;;;;17.60;9.25;;;19.90;99.90;;;;;;6217283;23;20047;-87
2023/08/23 08:08:04;;;;;;;13.63;8.23;;;19.70;99.90;;;;;;6212543;23;20426;-87
2023/08/23 08:10:49;;;;;;;14.02;7.85;;;19.90;99.90;;;;;;6213441;23;20076;-88
2023/08/23 08:13:15;;;;;;;14.88;8.27;;;20.00;99.90;;;;;;6213865;23;20147;-87
2023/08/23 08:15:42;;;;;;;13.23;7.50;;;20.00;99.90;;;;;;6212533;23;20024;-88
2023/08/23 08:18:20;;;;;;;15.57;8.63;;;20.10;99.90;;;;;;6214377;23;20025;-87
2023/08/23 08:23:30;;;;;;;11.48;6.28;;;20.20;99.90;;;;;;6212260;22;20036;-88
2023/08/23 08:26:02;;;;;;;12.27;6.65;;;19.90;99.90;;;;;;6215096;23;20062;-89
2023/08/23 08:28:30;;;;;;;12.33;6.50;;;20.80;99.90;;;;;;6214872;23;20461;-87
2023/08/23 08:30:56;;;;;;;13.05;6.97;;;20.30;99.90;;;;;;6212245;23;20028;-88
2023/08/23 08:33:21;;;;;;;14.00;7.63;;;20.40;99.90;;;;;;6215341;23;20012;-87
2023/08/23 08:36:03;;;;;;;14.20;7.25;;;20.40;99.90;;;;;;6211479;23;20327;-87
2023/08/23 08:38:29;;;;;;;12.90;7.40;;;20.50;99.90;;;;;;6207410;22;20036;-88
2023/08/23 08:41:05;;;;;;;12.00;6.40;;;20.50;99.90;;;;;;6187345;22;20024;-88
2023/08/23 08:43:56;;;;;;;12.95;6.68;;;20.60;99.90;;;;;;6214647;23;20096;-87
2023/08/23 08:46:31;;;;;;;10.75;5.80;;;20.60;99.90;;;;;;6216184;23;20016;-87
2023/08/23 08:51:47;;;;;;;11.50;6.70;;;20.90;99.90;;;;;;6213497;23;20025;-87
2023/08/23 08:54:19;;;;;;;11.52;6.45;;;21.00;99.90;;;;;;6215800;23;20028;-88
2023/08/23 08:56:47;;;;;;;11.95;6.53;;;21.10;99.90;;;;;;6219202;22;20116;-87
2023/08/23 08:59:16;;;;;;;11.10;5.97;;;21.10;99.90;;;;;;6188161;23;20104;-88
2023/08/23 09:02:14;;;;;;;11.23;6.10;;;21.20;99.90;;;;;;6183261;23;20031;-87
2023/08/23 09:04:46;;;;;;;10.25;5.30;;;21.00;99.90;;;;;;6171014;22;20095;-88
2023/08/23 09:07:15;;;;;;;10.57;5.30;;;21.30;99.90;;;;;;6195301;22;20030;-86
2023/08/23 09:09:43;;;;;;;9.50;5.25;;;21.40;99.90;;;;;;6216228;23;20071;-87
2023/08/23 09:12:14;;;;;;;11.60;4.75;;;21.50;99.90;;;;;;6213710;23;20021;-87
2023/08/23 09:21:00;;;;;;;10.50;4.90;;;21.70;99.90;;;;;;6215534;23;20112;-87
2023/08/23 09:23:33;;;;;;;10.52;5.63;;;21.90;99.90;;;;;;6214901;23;20448;-87
2023/08/23 09:26:34;;;;;;;9.98;4.47;;;21.90;99.90;;;;;;6214672;23;20016;-88
2023/08/23 09:29:05;;;;;;;11.75;4.50;;;22.00;99.90;;;;;;6216783;23;20021;-88
2023/08/23 09:31:39;;;;;;;9.05;4.10;;;22.10;99.90;;;;;;6216231;23;20028;-88
2023/08/23 09:34:13;;;;;;;;;;;22.20;99.90;;;;;;6215144;23;20094;-88
2023/08/23 09:37:09;;;;;;;9.30;4.57;;;22.30;99.90;;;;;;6211894;23;19972;-88
2023/08/23 09:39:43;;;;;;;10.45;4.85;;;22.40;99.90;;;;;;6214793;23;20075;-88
2023/08/23 09:42:33;;;;;;;8.88;4.15;;;22.40;99.90;;;;;;6188449;23;20017;-88
2023/08/23 09:45:05;;;;;;;9.63;4.13;;;22.60;99.90;;;;;;6216649;23;20330;-88
2023/08/23 09:47:32;;;;;;;8.93;4.07;;;22.60;99.90;;;;;;6216649;23;20036;-87
2023/08/23 09:51:10;;;;;;;9.18;3.80;;;22.60;99.90;;;;;;6219326;22;20380;-87
2023/08/23 09:53:46;;;;;;;10.98;4.50;;;22.70;99.90;;;;;;6185846;23;20057;-87
2023/08/23 09:56:13;;;;;;;12.05;4.78;;;22.90;99.90;;;;;;6185053;23;20075;-87
2023/08/23 09:58:40;;;;;;;9.88;4.25;;;22.90;99.90;;;;;;6184674;23;20017;-88
2023/08/23 10:01:19;;;;;;;9.35;4.47;;;22.90;99.90;;;;;;6185050;23;20406;-87
2023/08/23 10:06:23;;;;;;;10.60;4.40;;;23.10;99.90;;;;;;6214786;22;20025;-88
2023/08/23 10:11:26;;;;;;;9.63;4.10;;;23.30;99.90;;;;;;6215442;22;20021;-87
2023/08/23 10:14:09;;;;;;;8.80;3.65;;;23.40;99.90;;;;;;6214287;23;20104;-87
2023/08/23 10:16:42;;;;;;;8.90;4.40;;;23.60;99.90;;;;;;6213832;22;20017;-87
2023/08/23 10:19:08;;;;;;;8.82;4.07;;;23.60;99.90;;;;;;6214798;23;20027;-87
2023/08/23 10:21:44;;;;;;;9.35;3.97;;;23.70;99.90;;;;;;6216379;23;20690;-87
2023/08/23 10:24:10;;;;;;;9.23;4.07;;;23.70;99.90;;;;;;6218288;23;20449;-86
2023/08/23 10:29:42;;;;;;;9.02;4.22;;;24.20;99.90;;;;;;6213336;22;20028;-87
2023/08/23 11:06:58;;;;;;;8.50;2.80;;;25.00;99.90;;;;;;6207357;22;20031;-88
2023/08/23 11:13:21;;;;;;;7.13;2.35;;;25.20;99.90;;;;;;6183376;23;20230;-85
2023/08/23 11:16:15;;;;;;;9.20;2.47;;;25.70;99.90;;;;;;6183523;23;20437;-85
2023/08/23 11:18:50;;;;;;;8.75;2.55;;;25.50;99.90;;;;;;6182187;23;20021;-85
2023/08/23 11:21:32;;;;;;;8.10;2.50;;;25.40;99.90;;;;;;6183583;23;20017;-85
2023/08/23 11:24:04;;;;;;;6.82;2.42;;;25.10;99.90;;;;;;6183445;23;20327;-86
2023/08/23 11:26:36;;;;;;;9.70;2.50;;;25.00;99.90;;;;;;6182330;23;20461;-85
2023/08/23 11:29:03;;;;;;;7.57;2.60;;;24.80;99.90;;;;;;6183596;23;20063;-85
2023/08/23 11:31:38;;;;;;;7.95;2.53;;;24.70;99.90;;;;;;6183453;23;20040;-85
2023/08/23 12:46:04;;;;;;;8.82;3.13;;;25.20;99.90;;;;;;6181118;23;20032;-84
2023/08/23 17:42:47;;;;;;;10.23;4.00;;;23.80;99.90;;;;;;6064506;23;20022;-85
2023/08/23 17:45:52;;;;;;;12.60;4.85;;;23.50;99.90;;;;;;5954303;24;20088;-85
2023/08/23 17:48:20;;;;;;;9.98;4.90;;;23.40;99.90;;;;;;5950719;24;20162;-84
2023/08/23 17:51:00;;;;;;;11.73;5.07;;;23.20;99.90;;;;;;5976500;24;20112;-85
2023/08/23 17:54:00;;;;;;;10.65;5.10;;;23.00;99.90;;;;;;5977486;24;20020;-86
2023/08/23 17:57:04;;;;;;;15.57;5.30;;;23.00;99.90;;;;;;6011300;23;20034;-85
2023/08/23 17:59:41;;;;;;;11.55;5.13;;;22.80;99.90;;;;;;6012009;23;20404;-86
2023/08/23 18:02:45;;;;;;;11.52;5.43;;;22.70;99.90;;;;;;6062317;23;20101;-86
2023/08/23 18:05:24;;;;;;;11.48;5.30;;;22.60;99.90;;;;;;6060109;23;20395;-85
2023/08/23 18:08:22;;;;;;;13.00;5.57;;;22.50;99.90;;;;;;6067687;23;20018;-85
2023/08/23 18:10:53;;;;;;;11.20;4.50;;;22.40;99.90;;;;;;6243190;22;20039;-85
2023/08/23 18:14:20;;;;;;;10.05;4.80;;;22.30;99.90;;;;;;6216964;23;20017;-86
2023/08/23 18:17:00;;;;;;;11.27;4.68;;;22.20;99.90;;;;;;6217835;23;20024;-86
2023/08/23 18:20:00;;;;;;;11.07;4.25;;;22.20;99.90;;;;;;6218967;23;20094;-85
2023/08/23 18:22:26;;;;;;;9.15;3.67;;;22.20;99.90;;;;;;6217501;23;20016;-86
2023/08/23 18:25:00;;;;;;;9.07;3.65;;;21.90;99.90;;;;;;6243366;23;20016;-85
2023/08/23 18:30:27;;;;;;;9.55;3.30;;;21.60;99.90;;;;;;6240490;22;20020;-86
2023/08/23 18:36:23;;;;;;;9.40;3.25;;;21.50;99.90;;;;;;6241417;22;20023;-85
2023/08/23 18:38:48;;;;;;;10.35;3.25;;;21.40;99.90;;;;;;6243241;23;20027;-85
2023/08/23 18:41:26;;;;;;;9.57;3.33;;;21.30;99.90;;;;;;6216076;23;20017;-85
2023/08/23 18:43:55;;;;;;;10.90;3.30;;;21.20;99.90;;;;;;6247511;23;20016;-86
2023/08/23 18:46:33;;;;;;;8.20;2.90;;;21.10;99.90;;;;;;6217884;23;20024;-85
2023/08/23 18:49:02;;;;;;;7.47;2.70;;;21.00;99.90;;;;;;6210601;23;20020;-85
2023/08/23 18:54:08;;;;;;;10.35;2.70;;;20.90;99.90;;;;;;6215258;22;20024;-85
2023/08/23 18:56:36;;;;;;;7.75;2.40;;;20.90;99.90;;;;;;6213470;23;20091;-85
2023/08/23 18:59:33;;;;;;;8.63;2.60;;;20.80;99.90;;;;;;6094929;23;20025;-86
2023/08/23 19:02:01;;;;;;;8.30;2.58;;;20.80;99.90;;;;;;6068779;23;20029;-86
2023/08/23 19:04:33;;;;;;;8.95;2.67;;;20.80;99.90;;;;;;6069854;23;20014;-85
2023/08/23 19:07:14;;;;;;;9.45;2.83;;;20.40;99.90;;;;;;6067885;23;20025;-85
2023/08/23 19:10:02;;;;;;;6.93;2.22;;;20.70;99.90;;;;;;6068171;23;20021;-85
2023/08/23 19:18:24;;;;;;;6.90;2.45;;;20.60;99.90;;;;;;6120276;23;20033;-86
2023/08/23 19:21:04;;;;;;;7.80;2.47;;;20.60;99.90;;;;;;6093588;23;20018;-87
2023/08/23 19:26:05;;;;;;;7.75;2.40;;;20.50;99.90;;;;;;6206849;22;20061;-88
2023/08/23 19:29:02;;;;;;;6.82;2.47;;;20.50;99.90;;;;;;6248721;23;20081;-89
2023/08/23 19:31:34;;;;;;;10.55;2.88;;;20.50;99.90;;;;;;6215975;23;20024;-87
2023/08/23 19:35:21;;;;;;;8.02;2.40;;;20.40;99.90;;;;;;6216815;23;20016;-87
2023/08/23 19:37:50;;;;;;;8.40;2.45;;;20.40;99.90;;;;;;6069775;22;20008;-87
2023/08/23 19:40:22;;;;;;;8.88;2.40;;;20.30;99.90;;;;;;6212421;23;20396;-88
2023/08/23 19:42:54;;;;;;;7.15;2.20;;;20.30;99.90;;;;;;6215163;23;20012;-88
2023/08/23 19:45:24;;;;;;;7.40;2.40;;;20.20;99.90;;;;;;6213659;23;20017;-88
2023/08/23 19:48:09;;;;;;;10.25;2.53;;;20.20;99.90;;;;;;6188331;23;20024;-87
2023/08/23 19:50:46;;;;;;;7.65;2.58;;;20.20;99.90;;;;;;6187860;23;20023;-87
2023/08/23 20:00:06;;;;;;;8.95;2.72;;;20.20;99.90;;;;;;6121948;23;20037;-87
2023/08/23 20:03:26;;;;;;;7.78;2.63;;;20.10;99.90;;;;;;6154374;23;20017;-87
2023/08/23 20:06:40;;;;;;;7.15;2.45;;;20.10;99.90;;;;;;6126957;23;20025;-87
2023/08/23 20:09:09;;;;;;;7.68;2.30;;;20.00;99.90;;;;;;5983863;23;20349;-87
2023/08/23 20:22:10;;;;;;;7.15;2.50;;;20.00;99.90;;;;;;6043802;23;20050;-89
2023/08/23 20:41:40;;;;;;;8.55;2.60;;;19.90;99.90;;;;;;5583038;22;15066848;-88
2023/08/23 20:48:26;;;;;;;10.27;2.78;;;19.50;99.90;;;;;;6226116;23;20020;-87
2023/08/23 21:01:41;;;;;;;8.32;2.53;;;19.60;99.90;;;;;;6264100;22;20336;-89
2023/08/23 21:04:20;;;;;;;;;;;;;;;;;;;;;
2023/08/23 21:07:22;;;;;;;9.38;2.90;;;19.50;99.90;;;;;;6240847;22;20127;-89
2023/08/23 21:13:44;;;;;;;8.93;2.85;;;19.30;99.90;;;;;;6162506;23;20020;-88
2023/08/23 21:32:17;;;;;;;8.80;3.03;;;19.10;99.90;;;;;;6190067;23;20017;-87
2023/08/23 21:35:04;;;;;;;7.88;2.80;;;18.90;99.90;;;;;;6167128;23;20025;-87
2023/08/23 21:37:54;;;;;;;7.57;2.92;;;18.90;99.90;;;;;;6225242;23;20112;-87
2023/08/23 21:40:40;;;;;;;9.05;3.08;;;18.90;99.90;;;;;;6220394;22;20038;-87
2023/08/23 21:43:28;;;;;;;10.82;3.47;;;18.80;99.90;;;;;;6159544;23;20143;-87
2023/08/23 21:46:07;;;;;;;8.70;3.15;;;18.70;99.90;;;;;;6161590;22;20589;-88
2023/08/23 21:49:24;;;;;;;9.98;3.40;;;18.40;99.90;;;;;;6213122;23;20063;-87
2023/08/23 22:00:43;;;;;;;9.27;3.47;;;18.30;99.90;;;;;;6280297;22;20034;-89
2023/08/23 22:03:29;;;;;;;9.35;3.60;;;18.30;99.90;;;;;;6278989;22;20019;-87
2023/08/23 22:06:40;;;;;;;8.07;3.45;;;18.20;99.90;;;;;;6250694;22;20456;-87
2023/08/23 22:09:18;;;;;;;;;;;;;;;;;;;;;
2023/08/23 22:12:01;;;;;;;10.15;3.92;;;18.10;99.90;;;;;;6120013;23;20133;-87
2023/08/23 22:18:14;;;;;;;;;;;;;;;;;;;;;
2023/08/23 22:32:45;;;;;;;8.88;3.80;;;17.70;99.90;;;;;;6249087;22;20337;-88
2023/08/23 22:35:16;;;;;;;9.65;4.15;;;17.60;99.90;;;;;;6221843;23;20016;-88
2023/08/23 22:37:47;;;;;;;10.02;3.75;;;17.60;99.90;;;;;;6248189;23;20012;-88
2023/08/23 22:40:16;;;;;;;10.68;3.92;;;17.60;99.90;;;;;;6246943;23;20013;-88
2023/08/23 22:46:21;;;;;;;9.75;3.38;;;17.50;99.90;;;;;;6252758;23;20031;-89
2023/08/23 22:52:20;;;;;;;9.35;3.40;;;17.40;99.90;;;;;;6230103;22;20470;-88
2023/08/23 22:55:13;;;;;;;10.82;3.80;;;17.30;99.90;;;;;;6156899;23;20348;-88
2023/08/23 22:57:44;;;;;;;9.68;3.90;;;17.10;99.90;;;;;;6247531;23;20344;-87
2023/08/23 23:00:13;;;;;;;8.95;3.60;;;17.10;99.90;;;;;;6220015;23;20016;-88
2023/08/23 23:41:57;;;;;;;10.73;4.60;;;16.50;99.90;;;;;;6245085;22;20027;-87
2023/08/23 23:44:28;;;;;;;14.13;4.78;;;16.50;99.90;;;;;;6219682;23;20103;-88
2023/08/23 23:46:59;;;;;;;11.18;5.00;;;16.50;99.90;;;;;;6246549;23;20024;-88
2023/08/23 23:49:56;;;;;;;12.05;4.95;;;16.40;99.90;;;;;;6219881;23;20016;-87
2023/08/23 23:52:36;;;;;;;12.60;4.72;;;16.20;99.90;;;;;;6245776;23;20020;-87
2023/08/23 23:55:05;;;;;;;11.02;4.85;;;16.30;99.90;;;;;;6219687;23;20087;-88
2023/08/23 23:57:36;;;;;;;11.93;4.95;;;16.30;99.90;;;;;;6218976;23;20475;-87
